Weather at Plymouth Municipal Airport

Public forecast

Using degrees Fahrenheit for public forecast. Weather courtesy of forecast.io.

Current aviation weather report (METAR) for Plymouth Municipal Airport

Retrieved 2020/10/25 10:52 UTC (10 minutes ago):

KPYM 251052Z AUTO 34006KT 10SM BKN037 07/01 A3016 RMK AO2 SLP213 T00670011

Closest aviation forecast (TAF) to Plymouth Municipal Airport

Closest forecast is Cape Cod Coast Guard Air Station, 17.7 nm (32.7 km) SSE. Retrieved 2020/10/25 06:24 UTC (5 hours ago):

TAF KFMH 250523Z 2506/2606 36009KT P6SM BKN030 FM250900 36009KT P6SM BKN030 FM251200 02009KT P6SM BKN030 FM251800 04009KT P6SM SCT200 FM260200 07008KT P6SM OVC070 FM260400 08008KT 6SM BR VCSH OVC040